DLH409 KRDU-EDDF
Flight info
| Callsign | DLH409 |
|---|---|
| Flight time | N/A |
| Altitude | 37000 |
| Route | HURIC4 FEBEL DCT TYI DCT ORF AR9 ZIBUT/M082F370 DCT DRYED DCT 40N060W/M082F390 43N050W 47N040W 49N030W 50N020W DCT SOMAX DCT ATSUR DCT ARKIL/N0471F390 DCT OXLOW DCT KONAN UL607 SPI T180 NIVNU T847 IMCOM IMCOM1A |
| Aircraft | A333/H-SDE3GHIJ2J3J5M1RVWXY/LB2D1 |
Departure
| Time | 2026-05-05 17:30 |
|---|---|
| Airport | Raleigh-Durham International Airport (KRDU) |
Arrival
| Time | N/A |
|---|---|
| Airport | Frankfurt Main Airport (EDDF) |
| Time | Latitude | Longitude | Altitude | Speed | Heading |
|---|---|---|---|---|---|
| 2026-05-05 17:18 | 35.87966 | -78.79059 | 393 ft | 0 kts | 254° |
| 2026-05-05 17:24 | 35.87968 | -78.79052 | 390 ft | 2 kts | 252° |
| 2026-05-05 17:24 | 35.87972 | -78.79032 | 392 ft | 2 kts | 255° |
| 2026-05-05 17:24 | 35.87976 | -78.79013 | 388 ft | 2 kts | 258° |
| 2026-05-05 17:25 | 35.87977 | -78.78993 | 393 ft | 2 kts | 318° |
| 2026-05-05 17:25 | 35.87976 | -78.78991 | 393 ft | 0 kts | 321° |
| 2026-05-05 17:26 | 35.87980 | -78.78995 | 393 ft | 1 kts | 321° |
| 2026-05-05 17:26 | 35.88003 | -78.79020 | 394 ft | 7 kts | 314° |
| 2026-05-05 17:26 | 35.88059 | -78.79084 | 392 ft | 17 kts | 329° |
| 2026-05-05 17:27 | 35.88175 | -78.79104 | 394 ft | 12 kts | 22° |
| 2026-05-05 17:27 | 35.88232 | -78.79038 | 390 ft | 23 kts | 44° |
| 2026-05-05 17:27 | 35.88389 | -78.78841 | 389 ft | 34 kts | 45° |
| 2026-05-05 17:27 | 35.88555 | -78.78637 | 392 ft | 33 kts | 44° |
| 2026-05-05 17:28 | 35.88717 | -78.78437 | 395 ft | 33 kts | 45° |
| 2026-05-05 17:28 | 35.88878 | -78.78239 | 394 ft | 33 kts | 45° |
| 2026-05-05 17:28 | 35.89038 | -78.78041 | 390 ft | 33 kts | 45° |
| 2026-05-05 17:28 | 35.89196 | -78.77845 | 391 ft | 32 kts | 45° |
| 2026-05-05 17:29 | 35.89314 | -78.77750 | 393 ft | 3 kts | 333° |
| 2026-05-05 17:29 | 35.89359 | -78.77795 | 392 ft | 10 kts | 307° |
| 2026-05-05 17:29 | 35.89348 | -78.77852 | 390 ft | 4 kts | 226° |
| 2026-05-05 17:29 | 35.89296 | -78.77916 | 395 ft | 28 kts | 225° |
| 2026-05-05 17:30 | 35.89005 | -78.78274 | 395 ft | 87 kts | 225° |
| 2026-05-05 17:30 | 35.88445 | -78.78965 | 390 ft | 139 kts | 225° |
| 2026-05-05 17:30 | 35.87690 | -78.79887 | 752 ft | 160 kts | 224° |
| 2026-05-05 17:30 | 35.86649 | -78.80552 | 1116 ft | 187 kts | 183° |
| 2026-05-05 17:31 | 35.85514 | -78.79917 | 2120 ft | 180 kts | 134° |
| 2026-05-05 17:31 | 35.85123 | -78.78431 | 2777 ft | 200 kts | 92° |
| 2026-05-05 17:31 | 35.85713 | -78.76766 | 3019 ft | 230 kts | 50° |
| 2026-05-05 17:31 | 35.86910 | -78.75309 | 3246 ft | 254 kts | 46° |
| 2026-05-05 17:32 | 35.88064 | -78.73543 | 3496 ft | 274 kts | 62° |
| 2026-05-05 17:32 | 35.88866 | -78.71393 | 4135 ft | 278 kts | 74° |
| 2026-05-05 17:32 | 35.89392 | -78.69085 | 4786 ft | 281 kts | 81° |
| 2026-05-05 17:32 | 35.89747 | -78.66714 | 5489 ft | 282 kts | 85° |
| 2026-05-05 17:33 | 35.90002 | -78.64307 | 6215 ft | 285 kts | 88° |
| 2026-05-05 17:33 | 35.90202 | -78.61847 | 6876 ft | 291 kts | 89° |
| 2026-05-05 17:33 | 35.90373 | -78.59348 | 7572 ft | 294 kts | 90° |
| 2026-05-05 17:33 | 35.90528 | -78.56820 | 8312 ft | 297 kts | 90° |
| 2026-05-05 17:34 | 35.90677 | -78.54272 | 9022 ft | 299 kts | 91° |
| 2026-05-05 17:34 | 35.90821 | -78.51700 | 9753 ft | 302 kts | 91° |
| 2026-05-05 17:34 | 35.90963 | -78.49091 | 10320 ft | 311 kts | 91° |
| 2026-05-05 17:34 | 35.91108 | -78.46347 | 10575 ft | 330 kts | 90° |
| 2026-05-05 17:35 | 35.91261 | -78.43444 | 10819 ft | 348 kts | 90° |
| 2026-05-05 17:35 | 35.91423 | -78.40390 | 11054 ft | 366 kts | 90° |
| 2026-05-05 17:35 | 35.91594 | -78.37184 | 11283 ft | 383 kts | 89° |
| 2026-05-05 17:35 | 35.91772 | -78.33860 | 11708 ft | 393 kts | 89° |
| 2026-05-05 17:36 | 35.92013 | -78.30480 | 12282 ft | 398 kts | 86° |
| 2026-05-05 17:36 | 35.92333 | -78.27069 | 12869 ft | 403 kts | 85° |
| 2026-05-05 17:36 | 35.92670 | -78.23615 | 13458 ft | 407 kts | 85° |
| 2026-05-05 17:36 | 35.93008 | -78.20130 | 14020 ft | 411 kts | 85° |
| 2026-05-05 17:37 | 35.93346 | -78.16610 | 14565 ft | 414 kts | 84° |
| 2026-05-05 17:37 | 35.93685 | -78.13068 | 15073 ft | 418 kts | 84° |
| 2026-05-05 17:37 | 35.94021 | -78.09534 | 15597 ft | 421 kts | 84° |
| 2026-05-05 17:37 | 35.94362 | -78.05928 | 16125 ft | 425 kts | 84° |
| 2026-05-05 17:38 | 35.94706 | -78.02291 | 16636 ft | 428 kts | 84° |
| 2026-05-05 17:38 | 35.95052 | -77.98625 | 17139 ft | 432 kts | 84° |
| 2026-05-05 17:38 | 35.95400 | -77.94927 | 17641 ft | 435 kts | 84° |
| 2026-05-05 17:38 | 35.95753 | -77.91152 | 18144 ft | 439 kts | 84° |
| 2026-05-05 17:39 | 35.96098 | -77.87444 | 18585 ft | 442 kts | 83° |
| 2026-05-05 17:39 | 35.96450 | -77.83663 | 19037 ft | 444 kts | 83° |
| 2026-05-05 17:39 | 35.96806 | -77.79817 | 19517 ft | 446 kts | 83° |
| 2026-05-05 17:39 | 35.97195 | -77.76006 | 19965 ft | 448 kts | 80° |
| 2026-05-05 17:40 | 35.97914 | -77.72266 | 20435 ft | 449 kts | 71° |
| 2026-05-05 17:40 | 35.99094 | -77.68759 | 20865 ft | 449 kts | 60° |
| 2026-05-05 17:40 | 36.00720 | -77.65472 | 21302 ft | 449 kts | 54° |
| 2026-05-05 17:40 | 36.02522 | -77.62317 | 21746 ft | 450 kts | 51° |
| 2026-05-05 17:41 | 36.04417 | -77.59234 | 22180 ft | 451 kts | 50° |
| 2026-05-05 17:41 | 36.06356 | -77.56174 | 22590 ft | 453 kts | 49° |
| 2026-05-05 17:41 | 36.08311 | -77.53106 | 23016 ft | 455 kts | 49° |
| 2026-05-05 17:41 | 36.10267 | -77.50021 | 23469 ft | 457 kts | 50° |
| 2026-05-05 17:42 | 36.12217 | -77.46915 | 23880 ft | 458 kts | 50° |
| 2026-05-05 17:42 | 36.14164 | -77.43789 | 24210 ft | 460 kts | 50° |
| 2026-05-05 17:42 | 36.16114 | -77.40640 | 24554 ft | 462 kts | 50° |
| 2026-05-05 17:42 | 36.18065 | -77.37477 | 24896 ft | 463 kts | 50° |
| 2026-05-05 17:43 | 36.20024 | -77.34295 | 25236 ft | 465 kts | 50° |
| 2026-05-05 17:43 | 36.21986 | -77.31104 | 25568 ft | 467 kts | 50° |
| 2026-05-05 17:43 | 36.23957 | -77.27894 | 25910 ft | 469 kts | 50° |
| 2026-05-05 17:43 | 36.25935 | -77.24673 | 26245 ft | 470 kts | 49° |
| 2026-05-05 17:44 | 36.27919 | -77.21439 | 26580 ft | 472 kts | 49° |
| 2026-05-05 17:44 | 36.29911 | -77.18190 | 26888 ft | 475 kts | 49° |
| 2026-05-05 17:44 | 36.31912 | -77.14924 | 27251 ft | 476 kts | 49° |
| 2026-05-05 17:44 | 36.33915 | -77.11651 | 27592 ft | 477 kts | 49° |
| 2026-05-05 17:45 | 36.35921 | -77.08370 | 27919 ft | 479 kts | 49° |
| 2026-05-05 17:45 | 36.37942 | -77.05063 | 28246 ft | 481 kts | 49° |
| 2026-05-05 17:45 | 36.39964 | -77.01750 | 28560 ft | 482 kts | 49° |
| 2026-05-05 17:45 | 36.41990 | -76.98426 | 28890 ft | 484 kts | 49° |
| 2026-05-05 17:46 | 36.44024 | -76.95087 | 29183 ft | 485 kts | 49° |
| 2026-05-05 17:46 | 36.46059 | -76.91738 | 29633 ft | 484 kts | 49° |
| 2026-05-05 17:46 | 36.48080 | -76.88409 | 30123 ft | 481 kts | 49° |
| 2026-05-05 17:46 | 36.50094 | -76.85090 | 30522 ft | 480 kts | 49° |
| 2026-05-05 17:47 | 36.52099 | -76.81784 | 30909 ft | 478 kts | 49° |
| 2026-05-05 17:47 | 36.54094 | -76.78492 | 31316 ft | 476 kts | 49° |
| 2026-05-05 17:47 | 36.56081 | -76.75208 | 31669 ft | 475 kts | 48° |
| 2026-05-05 17:47 | 36.58038 | -76.71974 | 32011 ft | 474 kts | 48° |
| 2026-05-05 17:48 | 36.60019 | -76.68695 | 32354 ft | 473 kts | 48° |
| 2026-05-05 17:48 | 36.61996 | -76.65422 | 32703 ft | 472 kts | 48° |
| 2026-05-05 17:48 | 36.63964 | -76.62158 | 33026 ft | 471 kts | 48° |
| 2026-05-05 17:48 | 36.65928 | -76.58897 | 33341 ft | 470 kts | 48° |
| 2026-05-05 17:49 | 36.67890 | -76.55637 | 33670 ft | 470 kts | 48° |
| 2026-05-05 17:49 | 36.69847 | -76.52384 | 33977 ft | 469 kts | 48° |
| 2026-05-05 17:49 | 36.71799 | -76.49134 | 34234 ft | 469 kts | 48° |
| 2026-05-05 17:49 | 36.73760 | -76.45871 | 34340 ft | 472 kts | 48° |
| 2026-05-05 17:50 | 36.75728 | -76.42592 | 34519 ft | 473 kts | 48° |
| 2026-05-05 17:50 | 36.77696 | -76.39307 | 34759 ft | 472 kts | 48° |
| 2026-05-05 17:50 | 36.79663 | -76.36019 | 34970 ft | 472 kts | 48° |
| 2026-05-05 17:50 | 36.81628 | -76.32731 | 35169 ft | 473 kts | 48° |
| 2026-05-05 17:51 | 36.83594 | -76.29441 | 35358 ft | 473 kts | 48° |
| 2026-05-05 17:51 | 36.85533 | -76.26115 | 35556 ft | 475 kts | 52° |
| 2026-05-05 17:51 | 36.87200 | -76.22532 | 35743 ft | 481 kts | 59° |
| 2026-05-05 17:51 | 36.88457 | -76.18637 | 35920 ft | 487 kts | 69° |
| 2026-05-05 17:52 | 36.89210 | -76.14494 | 36095 ft | 493 kts | 79° |
| 2026-05-05 17:52 | 36.89530 | -76.10218 | 36298 ft | 495 kts | 83° |
| 2026-05-05 17:52 | 36.89706 | -76.05926 | 36532 ft | 495 kts | 85° |
| 2026-05-05 17:52 | 36.89811 | -76.01636 | 36753 ft | 494 kts | 86° |
| 2026-05-05 17:53 | 36.89889 | -75.97343 | 36933 ft | 494 kts | 86° |
| 2026-05-05 17:53 | 36.89964 | -75.93043 | 37045 ft | 495 kts | 86° |
| 2026-05-05 17:53 | 36.90048 | -75.88736 | 37062 ft | 496 kts | 86° |
| 2026-05-05 17:54 | 36.90239 | -75.80139 | 37062 ft | 495 kts | 85° |
| 2026-05-05 17:54 | 36.90447 | -75.71601 | 37070 ft | 495 kts | 86° |
| 2026-05-05 17:55 | 36.90656 | -75.63009 | 37080 ft | 495 kts | 86° |
| 2026-05-05 17:55 | 36.90857 | -75.54416 | 37080 ft | 495 kts | 86° |
| 2026-05-05 17:56 | 36.91043 | -75.45819 | 37087 ft | 495 kts | 86° |
| 2026-05-05 17:56 | 36.91224 | -75.37222 | 37085 ft | 495 kts | 86° |
| 2026-05-05 17:57 | 36.91490 | -75.28613 | 37085 ft | 496 kts | 85° |
| 2026-05-05 17:57 | 36.91794 | -75.20004 | 37093 ft | 496 kts | 86° |
| 2026-05-05 17:58 | 36.91974 | -75.11384 | 37097 ft | 496 kts | 86° |
| 2026-05-05 17:58 | 36.92093 | -75.02758 | 37102 ft | 497 kts | 87° |
| 2026-05-05 17:59 | 36.92208 | -74.94116 | 37099 ft | 497 kts | 87° |
| 2026-05-05 17:59 | 36.92325 | -74.85479 | 37099 ft | 497 kts | 87° |
| 2026-05-05 18:00 | 36.92441 | -74.76841 | 37103 ft | 497 kts | 87° |
| 2026-05-05 18:00 | 36.92551 | -74.68204 | 37104 ft | 497 kts | 87° |
| 2026-05-05 18:01 | 36.92656 | -74.59562 | 37110 ft | 497 kts | 88° |
| 2026-05-05 18:01 | 36.92738 | -74.52385 | 37111 ft | 497 kts | 88° |
| 2026-05-05 18:02 | 36.92848 | -74.42343 | 37113 ft | 497 kts | 87° |
| 2026-05-05 18:02 | 36.92970 | -74.33705 | 37115 ft | 497 kts | 88° |
| 2026-05-05 18:03 | 36.93079 | -74.26465 | 37118 ft | 497 kts | 88° |
| 2026-05-05 18:03 | 36.93202 | -74.17823 | 37128 ft | 497 kts | 88° |
| 2026-05-05 18:04 | 36.93316 | -74.09180 | 37122 ft | 497 kts | 88° |
| 2026-05-05 18:04 | 36.93421 | -74.00594 | 37123 ft | 497 kts | 88° |
| 2026-05-05 18:05 | 36.93521 | -73.91951 | 37126 ft | 497 kts | 88° |
| 2026-05-05 18:05 | 36.93614 | -73.83307 | 37126 ft | 497 kts | 89° |
| 2026-05-05 18:06 | 36.93702 | -73.74663 | 37126 ft | 497 kts | 89° |
| 2026-05-05 18:06 | 36.93754 | -73.66016 | 37126 ft | 497 kts | 89° |
| 2026-05-05 18:07 | 36.93760 | -73.57381 | 37130 ft | 497 kts | 90° |
| 2026-05-05 18:07 | 36.93760 | -73.48750 | 37132 ft | 497 kts | 89° |
| 2026-05-05 18:08 | 36.93780 | -73.40111 | 37135 ft | 497 kts | 89° |
| 2026-05-05 18:08 | 36.93804 | -73.31480 | 37139 ft | 497 kts | 89° |
| 2026-05-05 18:09 | 36.93826 | -73.22858 | 37139 ft | 496 kts | 90° |
| 2026-05-05 18:09 | 36.93843 | -73.14238 | 37140 ft | 496 kts | 90° |
| 2026-05-05 18:10 | 36.93853 | -73.05626 | 37145 ft | 496 kts | 90° |
| 2026-05-05 18:10 | 36.93858 | -72.97014 | 37146 ft | 496 kts | 90° |
| 2026-05-05 18:11 | 36.93861 | -72.88395 | 37154 ft | 495 kts | 90° |
| 2026-05-05 18:11 | 36.93860 | -72.79846 | 37151 ft | 495 kts | 90° |
| 2026-05-05 18:12 | 36.93874 | -72.71249 | 37150 ft | 495 kts | 87° |
| 2026-05-05 18:12 | 36.95132 | -72.62840 | 37154 ft | 492 kts | 71° |
| 2026-05-05 18:13 | 36.97465 | -72.54785 | 37152 ft | 493 kts | 68° |
| 2026-05-05 18:13 | 36.99993 | -72.46816 | 37155 ft | 493 kts | 67° |
| 2026-05-05 18:14 | 37.02529 | -72.38840 | 37158 ft | 493 kts | 67° |
| 2026-05-05 18:14 | 37.05035 | -72.30844 | 37156 ft | 493 kts | 68° |
| 2026-05-05 18:15 | 37.07519 | -72.22843 | 37156 ft | 493 kts | 68° |
| 2026-05-05 18:15 | 37.09997 | -72.14825 | 37159 ft | 493 kts | 68° |
| 2026-05-05 18:16 | 37.12450 | -72.06866 | 37158 ft | 493 kts | 68° |
| 2026-05-05 18:16 | 37.14919 | -71.98839 | 37160 ft | 493 kts | 68° |
| 2026-05-05 18:17 | 37.17381 | -71.90812 | 37160 ft | 493 kts | 68° |
| 2026-05-05 18:17 | 37.19839 | -71.82778 | 37171 ft | 494 kts | 68° |
| 2026-05-05 18:18 | 37.22292 | -71.74734 | 37179 ft | 494 kts | 68° |
| 2026-05-05 18:18 | 37.24740 | -71.66685 | 37170 ft | 493 kts | 68° |
| 2026-05-05 18:19 | 37.27179 | -71.58639 | 37170 ft | 493 kts | 68° |
| 2026-05-05 18:19 | 37.29613 | -71.50589 | 37171 ft | 494 kts | 68° |
| 2026-05-05 18:20 | 37.32048 | -71.42514 | 37173 ft | 495 kts | 68° |
| 2026-05-05 18:20 | 37.34478 | -71.34429 | 37168 ft | 495 kts | 69° |
| 2026-05-05 18:21 | 37.36904 | -71.26337 | 37171 ft | 495 kts | 69° |
| 2026-05-05 18:21 | 37.39323 | -71.18242 | 37173 ft | 494 kts | 69° |
| 2026-05-05 18:22 | 37.41732 | -71.10156 | 37178 ft | 494 kts | 69° |
| 2026-05-05 18:22 | 37.44137 | -71.02062 | 37171 ft | 494 kts | 69° |
| 2026-05-05 18:23 | 37.46536 | -70.93964 | 37173 ft | 494 kts | 69° |
| 2026-05-05 18:23 | 37.48930 | -70.85859 | 37173 ft | 494 kts | 69° |
| 2026-05-05 18:24 | 37.51321 | -70.77739 | 37177 ft | 495 kts | 69° |
| 2026-05-05 18:24 | 37.53710 | -70.69603 | 37174 ft | 495 kts | 69° |
| 2026-05-05 18:25 | 37.56074 | -70.61526 | 37177 ft | 495 kts | 69° |
| 2026-05-05 18:25 | 37.58449 | -70.53389 | 37172 ft | 495 kts | 69° |
| 2026-05-05 18:26 | 37.60824 | -70.45229 | 37180 ft | 496 kts | 69° |
| 2026-05-05 18:26 | 37.63195 | -70.37057 | 37181 ft | 496 kts | 69° |
| 2026-05-05 18:27 | 37.65562 | -70.28873 | 37185 ft | 496 kts | 69° |
| 2026-05-05 18:27 | 37.67921 | -70.20694 | 37186 ft | 496 kts | 69° |
| 2026-05-05 18:28 | 37.71449 | -70.08414 | 37181 ft | 496 kts | 70° |
| 2026-05-05 18:28 | 37.73795 | -70.00214 | 37184 ft | 496 kts | 70° |
| 2026-05-05 18:29 | 37.76136 | -69.92010 | 37191 ft | 496 kts | 70° |
| 2026-05-05 18:29 | 37.78471 | -69.83801 | 37183 ft | 497 kts | 70° |
| 2026-05-05 18:30 | 37.80807 | -69.75566 | 37198 ft | 498 kts | 70° |
| 2026-05-05 18:30 | 37.83121 | -69.67378 | 37193 ft | 497 kts | 70° |
| 2026-05-05 18:31 | 37.85441 | -69.59146 | 37182 ft | 496 kts | 70° |
| 2026-05-05 18:31 | 37.87755 | -69.50911 | 37189 ft | 497 kts | 70° |
| 2026-05-05 18:32 | 37.90066 | -69.42659 | 37190 ft | 498 kts | 70° |
| 2026-05-05 18:32 | 37.92376 | -69.34385 | 37195 ft | 498 kts | 70° |
| 2026-05-05 18:33 | 37.94680 | -69.26109 | 37194 ft | 498 kts | 71° |
| 2026-05-05 18:33 | 37.96974 | -69.17841 | 37179 ft | 497 kts | 71° |
| 2026-05-05 18:34 | 37.99260 | -69.09576 | 37199 ft | 497 kts | 71° |
| 2026-05-05 18:34 | 38.01541 | -69.01303 | 37193 ft | 497 kts | 71° |
| 2026-05-05 18:35 | 38.03818 | -68.93016 | 37195 ft | 497 kts | 71° |
| 2026-05-05 18:35 | 38.06088 | -68.84730 | 37188 ft | 497 kts | 71° |
| 2026-05-05 18:36 | 38.08342 | -68.76479 | 37201 ft | 498 kts | 71° |
| 2026-05-05 18:36 | 38.10618 | -68.68119 | 37199 ft | 497 kts | 71° |
| 2026-05-05 18:37 | 38.12855 | -68.59873 | 37202 ft | 497 kts | 71° |
| 2026-05-05 18:37 | 38.15103 | -68.51564 | 37192 ft | 497 kts | 71° |
| 2026-05-05 18:38 | 38.17349 | -68.43233 | 37197 ft | 499 kts | 71° |
| 2026-05-05 18:38 | 38.19595 | -68.34873 | 37202 ft | 500 kts | 71° |
| 2026-05-05 18:39 | 38.21833 | -68.26520 | 37203 ft | 498 kts | 72° |
| 2026-05-05 18:39 | 38.24057 | -68.18192 | 37195 ft | 497 kts | 72° |
| 2026-05-05 18:40 | 38.26275 | -68.09855 | 37199 ft | 499 kts | 72° |
| 2026-05-05 18:40 | 38.28494 | -68.01489 | 37203 ft | 499 kts | 72° |
| 2026-05-05 18:41 | 38.30708 | -67.93115 | 37203 ft | 499 kts | 72° |
| 2026-05-05 18:41 | 38.32918 | -67.84731 | 37212 ft | 499 kts | 72° |
| 2026-05-05 18:42 | 38.35113 | -67.76372 | 37205 ft | 496 kts | 72° |
| 2026-05-05 18:42 | 38.37296 | -67.68034 | 37191 ft | 496 kts | 72° |
| 2026-05-05 18:43 | 38.39473 | -67.59690 | 37210 ft | 496 kts | 72° |
| 2026-05-05 18:43 | 38.41629 | -67.51398 | 37207 ft | 497 kts | 72° |
| 2026-05-05 18:44 | 38.43800 | -67.43022 | 37201 ft | 498 kts | 72° |
| 2026-05-05 18:44 | 38.45968 | -67.34628 | 37214 ft | 498 kts | 72° |
| 2026-05-05 18:45 | 38.48130 | -67.26229 | 37211 ft | 498 kts | 72° |
| 2026-05-05 18:45 | 38.50287 | -67.17825 | 37212 ft | 499 kts | 72° |
| 2026-05-05 18:46 | 38.52444 | -67.09389 | 37215 ft | 500 kts | 72° |
| 2026-05-05 18:46 | 38.54598 | -67.00938 | 37213 ft | 500 kts | 73° |
| 2026-05-05 18:47 | 38.56744 | -66.92485 | 37228 ft | 500 kts | 73° |
| 2026-05-05 18:47 | 38.58882 | -66.84040 | 37217 ft | 498 kts | 73° |
| 2026-05-05 18:48 | 38.61010 | -66.75601 | 37223 ft | 499 kts | 73° |
| 2026-05-05 18:48 | 38.63134 | -66.67148 | 37217 ft | 499 kts | 73° |
| 2026-05-05 18:49 | 38.64843 | -66.60102 | 37222 ft | 499 kts | 74° |
| 2026-05-05 18:49 | 38.66851 | -66.51583 | 37221 ft | 501 kts | 74° |
| 2026-05-05 18:50 | 38.68859 | -66.43019 | 37230 ft | 503 kts | 74° |
| 2026-05-05 18:50 | 38.70863 | -66.34479 | 37225 ft | 499 kts | 74° |
| 2026-05-05 18:51 | 38.72856 | -66.25976 | 37219 ft | 499 kts | 74° |
| 2026-05-05 18:51 | 38.74847 | -66.17452 | 37224 ft | 501 kts | 74° |
| 2026-05-05 18:52 | 38.76843 | -66.08874 | 37225 ft | 503 kts | 74° |
| 2026-05-05 18:52 | 38.78834 | -66.00285 | 37224 ft | 503 kts | 75° |
| 2026-05-05 18:53 | 38.80802 | -65.91762 | 37219 ft | 501 kts | 75° |
| 2026-05-05 18:53 | 38.82775 | -65.83186 | 37230 ft | 502 kts | 75° |
| 2026-05-05 18:54 | 38.84747 | -65.74584 | 37230 ft | 503 kts | 75° |
| 2026-05-05 18:54 | 38.86713 | -65.65977 | 37233 ft | 503 kts | 75° |
| 2026-05-05 18:55 | 38.88672 | -65.57362 | 37230 ft | 504 kts | 75° |
| 2026-05-05 18:55 | 38.90638 | -65.48689 | 37243 ft | 506 kts | 75° |
| 2026-05-05 18:56 | 38.92594 | -65.40024 | 37233 ft | 504 kts | 75° |
| 2026-05-05 18:56 | 38.94538 | -65.31385 | 37235 ft | 503 kts | 75° |
| 2026-05-05 18:57 | 38.96479 | -65.22718 | 37236 ft | 506 kts | 75° |
| 2026-05-05 18:57 | 38.98424 | -65.14003 | 37241 ft | 508 kts | 75° |
| 2026-05-05 18:58 | 39.00364 | -65.05276 | 37240 ft | 508 kts | 75° |
| 2026-05-05 18:58 | 39.02296 | -64.96553 | 37234 ft | 506 kts | 76° |
| 2026-05-05 18:59 | 39.04222 | -64.87824 | 37243 ft | 508 kts | 76° |
| 2026-05-05 18:59 | 39.06146 | -64.79062 | 37237 ft | 509 kts | 76° |
| 2026-05-05 19:00 | 39.08052 | -64.70354 | 37248 ft | 509 kts | 76° |
| 2026-05-05 19:00 | 39.09964 | -64.61584 | 37241 ft | 509 kts | 76° |
| 2026-05-05 19:01 | 39.11870 | -64.52808 | 37244 ft | 508 kts | 76° |
| 2026-05-05 19:01 | 39.13760 | -64.44069 | 37244 ft | 506 kts | 76° |
| 2026-05-05 19:02 | 39.15640 | -64.35341 | 37233 ft | 506 kts | 76° |
| 2026-05-05 19:02 | 39.17520 | -64.26572 | 37241 ft | 509 kts | 76° |
| 2026-05-05 19:03 | 39.19402 | -64.17764 | 37252 ft | 510 kts | 76° |
| 2026-05-05 19:03 | 39.21279 | -64.08943 | 37256 ft | 509 kts | 76° |
| 2026-05-05 19:04 | 39.23141 | -64.00160 | 37255 ft | 508 kts | 76° |
| 2026-05-05 19:04 | 39.25005 | -63.91328 | 37252 ft | 511 kts | 76° |
| 2026-05-05 19:05 | 39.26866 | -63.82476 | 37251 ft | 511 kts | 76° |
| 2026-05-05 19:05 | 39.28720 | -63.73617 | 37247 ft | 511 kts | 77° |
| 2026-05-05 19:06 | 39.30572 | -63.64733 | 37260 ft | 513 kts | 76° |
| 2026-05-05 19:06 | 39.32418 | -63.55842 | 37256 ft | 512 kts | 76° |
| 2026-05-05 19:07 | 39.34254 | -63.46965 | 37256 ft | 511 kts | 77° |
| 2026-05-05 19:07 | 39.36082 | -63.38083 | 37253 ft | 513 kts | 77° |
| 2026-05-05 19:08 | 39.37916 | -63.29133 | 37260 ft | 516 kts | 77° |
| 2026-05-05 19:08 | 39.39735 | -63.20219 | 37272 ft | 516 kts | 77° |
| 2026-05-05 19:09 | 39.41556 | -63.11265 | 37246 ft | 513 kts | 77° |
| 2026-05-05 19:09 | 39.43366 | -63.02320 | 37257 ft | 516 kts | 77° |
| 2026-05-05 19:10 | 39.45178 | -62.93321 | 37260 ft | 517 kts | 77° |
| 2026-05-05 19:10 | 39.46985 | -62.84315 | 37265 ft | 517 kts | 77° |
| 2026-05-05 19:11 | 39.48789 | -62.75288 | 37264 ft | 519 kts | 77° |
| 2026-05-05 19:11 | 39.50592 | -62.66221 | 37258 ft | 521 kts | 77° |
| 2026-05-05 19:12 | 39.52391 | -62.57134 | 37267 ft | 521 kts | 77° |
| 2026-05-05 19:12 | 39.54182 | -62.48046 | 37273 ft | 522 kts | 78° |
| 2026-05-05 19:13 | 39.55974 | -62.38911 | 37258 ft | 524 kts | 78° |
| 2026-05-05 19:13 | 39.57762 | -62.29760 | 37264 ft | 524 kts | 77° |
| 2026-05-05 19:14 | 39.59539 | -62.20622 | 37268 ft | 522 kts | 78° |
| 2026-05-05 19:14 | 39.61310 | -62.11475 | 37277 ft | 524 kts | 78° |
| 2026-05-05 19:15 | 39.63079 | -62.02290 | 37272 ft | 525 kts | 78° |
| 2026-05-05 19:15 | 39.64844 | -61.93093 | 37280 ft | 525 kts | 78° |
| 2026-05-05 19:16 | 39.66602 | -61.83878 | 37264 ft | 528 kts | 78° |
| 2026-05-05 19:16 | 39.68346 | -61.74703 | 37268 ft | 526 kts | 78° |
| 2026-05-05 19:17 | 39.70091 | -61.65479 | 37273 ft | 526 kts | 78° |
| 2026-05-05 19:17 | 39.71827 | -61.56258 | 37283 ft | 526 kts | 78° |
| 2026-05-05 19:18 | 39.73556 | -61.47031 | 37271 ft | 526 kts | 78° |
| 2026-05-05 19:18 | 39.75278 | -61.37799 | 37277 ft | 525 kts | 78° |
| 2026-05-05 19:19 | 39.76986 | -61.28595 | 37286 ft | 524 kts | 78° |
| 2026-05-05 19:19 | 39.78691 | -61.19364 | 37286 ft | 526 kts | 78° |
| 2026-05-05 19:20 | 39.80392 | -61.10110 | 37276 ft | 526 kts | 78° |
| 2026-05-05 19:20 | 39.82085 | -61.00858 | 37277 ft | 527 kts | 78° |
| 2026-05-05 19:21 | 39.83773 | -60.91579 | 37276 ft | 527 kts | 78° |
| 2026-05-05 19:21 | 39.85454 | -60.82304 | 37278 ft | 526 kts | 78° |
| 2026-05-05 19:22 | 39.87127 | -60.73032 | 37276 ft | 526 kts | 78° |
| 2026-05-05 19:22 | 39.88788 | -60.63765 | 37280 ft | 531 kts | 78° |
| 2026-05-05 19:23 | 39.90462 | -60.54390 | 37282 ft | 532 kts | 78° |
| 2026-05-05 19:23 | 39.92120 | -60.45056 | 37264 ft | 527 kts | 78° |
| 2026-05-05 19:24 | 39.93770 | -60.35724 | 37284 ft | 530 kts | 78° |
| 2026-05-05 19:24 | 39.95420 | -60.26340 | 37287 ft | 532 kts | 78° |
| 2026-05-05 19:25 | 39.97065 | -60.16941 | 37266 ft | 532 kts | 79° |
| 2026-05-05 19:25 | 39.98704 | -60.07520 | 37292 ft | 533 kts | 78° |
| 2026-05-05 19:26 | 40.00767 | -59.98253 | 37294 ft | 532 kts | 68° |
| 2026-05-05 19:26 | 40.03741 | -59.89401 | 37273 ft | 533 kts | 65° |
| 2026-05-05 19:27 | 40.06890 | -59.80611 | 37290 ft | 537 kts | 64° |
| 2026-05-05 19:27 | 40.10070 | -59.71782 | 37283 ft | 535 kts | 64° |
| 2026-05-05 19:28 | 40.13203 | -59.62995 | 37299 ft | 533 kts | 65° |
| 2026-05-05 19:28 | 40.16319 | -59.54192 | 37294 ft | 536 kts | 65° |
| 2026-05-05 19:29 | 40.19448 | -59.45314 | 37285 ft | 537 kts | 65° |
| 2026-05-05 19:29 | 40.22555 | -59.36469 | 37308 ft | 534 kts | 65° |
| 2026-05-05 19:30 | 40.25649 | -59.27640 | 37299 ft | 535 kts | 65° |
| 2026-05-05 19:30 | 40.28754 | -59.18751 | 37317 ft | 539 kts | 65° |
| 2026-05-05 19:31 | 40.31853 | -59.09852 | 37299 ft | 535 kts | 65° |
| 2026-05-05 19:31 | 40.34927 | -59.00996 | 37307 ft | 534 kts | 65° |
| 2026-05-05 19:32 | 40.38012 | -58.92084 | 37302 ft | 538 kts | 65° |
| 2026-05-05 19:32 | 40.41080 | -58.83192 | 37300 ft | 539 kts | 65° |
| 2026-05-05 19:33 | 40.44161 | -58.74232 | 37303 ft | 539 kts | 65° |
| 2026-05-05 19:33 | 40.47238 | -58.65259 | 37306 ft | 539 kts | 65° |
| 2026-05-05 19:34 | 40.50303 | -58.56289 | 37311 ft | 536 kts | 65° |
| 2026-05-05 19:35 | 40.54851 | -58.42927 | 37304 ft | 533 kts | 65° |
| 2026-05-05 19:35 | 40.57381 | -58.35466 | 37304 ft | 533 kts | 65° |
| 2026-05-05 19:36 | 40.60883 | -58.25106 | 37312 ft | 534 kts | 65° |
| 2026-05-05 19:36 | 40.63394 | -58.17655 | 37308 ft | 537 kts | 65° |
| 2026-05-05 19:37 | 40.66417 | -58.08661 | 37301 ft | 537 kts | 65° |
| 2026-05-05 19:37 | 40.69429 | -57.99665 | 37318 ft | 537 kts | 65° |
| 2026-05-05 19:38 | 40.72429 | -57.90678 | 37307 ft | 535 kts | 65° |
| 2026-05-05 19:38 | 40.75415 | -57.81705 | 37308 ft | 534 kts | 65° |
| 2026-05-05 19:39 | 40.78397 | -57.72718 | 37304 ft | 535 kts | 65° |
| 2026-05-05 19:39 | 40.81369 | -57.63726 | 37306 ft | 534 kts | 65° |
| 2026-05-05 19:40 | 40.84336 | -57.54725 | 37307 ft | 536 kts | 65° |
| 2026-05-05 19:40 | 40.87314 | -57.45658 | 37304 ft | 538 kts | 65° |
| 2026-05-05 19:41 | 40.90284 | -57.36586 | 37310 ft | 537 kts | 66° |
| 2026-05-05 19:41 | 40.93240 | -57.27527 | 37303 ft | 536 kts | 66° |
| 2026-05-05 19:42 | 40.96164 | -57.18538 | 37305 ft | 536 kts | 66° |
| 2026-05-05 19:42 | 40.99103 | -57.09473 | 37311 ft | 536 kts | 66° |
| 2026-05-05 19:43 | 41.02033 | -57.00403 | 37309 ft | 536 kts | 66° |
| 2026-05-05 19:43 | 41.04957 | -56.91325 | 37311 ft | 536 kts | 66° |
| 2026-05-05 19:44 | 41.07882 | -56.82212 | 37313 ft | 538 kts | 66° |
| 2026-05-05 19:44 | 41.10806 | -56.73071 | 37308 ft | 538 kts | 66° |
| 2026-05-05 19:45 | 41.13715 | -56.63947 | 37311 ft | 537 kts | 66° |
| 2026-05-05 19:45 | 41.16619 | -56.54806 | 37309 ft | 537 kts | 66° |
| 2026-05-05 19:46 | 41.19515 | -56.45662 | 37310 ft | 537 kts | 66° |
| 2026-05-05 19:46 | 41.22396 | -56.36533 | 37314 ft | 535 kts | 66° |
| 2026-05-05 19:47 | 41.25267 | -56.27404 | 37312 ft | 536 kts | 66° |
| 2026-05-05 19:47 | 41.28135 | -56.18257 | 37325 ft | 538 kts | 66° |
| 2026-05-05 19:48 | 41.30991 | -56.09117 | 37313 ft | 539 kts | 66° |
| 2026-05-05 19:48 | 41.33859 | -55.99902 | 37314 ft | 539 kts | 66° |
| 2026-05-05 19:49 | 41.36722 | -55.90676 | 37314 ft | 539 kts | 66° |
| 2026-05-05 19:49 | 41.39575 | -55.81447 | 37317 ft | 539 kts | 66° |
| 2026-05-05 19:50 | 41.42424 | -55.72202 | 37317 ft | 539 kts | 66° |
| 2026-05-05 19:50 | 41.45263 | -55.62956 | 37317 ft | 539 kts | 66° |
| 2026-05-05 19:51 | 41.48095 | -55.53702 | 37295 ft | 539 kts | 66° |
| 2026-05-05 19:51 | 41.50920 | -55.44437 | 37319 ft | 541 kts | 67° |
| 2026-05-05 19:52 | 41.53751 | -55.35120 | 37319 ft | 542 kts | 67° |
| 2026-05-05 19:52 | 41.56576 | -55.25789 | 37335 ft | 542 kts | 67° |
| 2026-05-05 19:53 | 41.59371 | -55.16524 | 37319 ft | 540 kts | 67° |
| 2026-05-05 19:53 | 41.62171 | -55.07212 | 37319 ft | 540 kts | 67° |
| 2026-05-05 19:54 | 41.64963 | -54.97890 | 37320 ft | 540 kts | 67° |
| 2026-05-05 19:54 | 41.67745 | -54.88570 | 37327 ft | 539 kts | 67° |
| 2026-05-05 19:55 | 41.70517 | -54.79250 | 37326 ft | 539 kts | 67° |
| 2026-05-05 19:55 | 41.73285 | -54.69910 | 37327 ft | 540 kts | 67° |
| 2026-05-05 19:56 | 41.76050 | -54.60551 | 37330 ft | 541 kts | 67° |
| 2026-05-05 19:56 | 41.78810 | -54.51170 | 37329 ft | 540 kts | 68° |
| 2026-05-05 19:57 | 41.81558 | -54.41797 | 37328 ft | 540 kts | 68° |
| 2026-05-05 19:57 | 41.84299 | -54.32412 | 37325 ft | 540 kts | 68° |
| 2026-05-05 19:58 | 41.87033 | -54.23018 | 37330 ft | 540 kts | 68° |
| 2026-05-05 19:58 | 41.89753 | -54.13639 | 37325 ft | 539 kts | 68° |
| 2026-05-05 19:59 | 41.92467 | -54.04244 | 37336 ft | 541 kts | 68° |
| 2026-05-05 19:59 | 41.95185 | -53.94806 | 37333 ft | 542 kts | 68° |
| 2026-05-05 20:00 | 41.97894 | -53.85358 | 37334 ft | 541 kts | 68° |
| 2026-05-05 20:00 | 42.00592 | -53.75913 | 37336 ft | 541 kts | 68° |
| 2026-05-05 20:01 | 42.03265 | -53.66526 | 37339 ft | 541 kts | 68° |
| 2026-05-05 20:01 | 42.05948 | -53.57066 | 37337 ft | 541 kts | 68° |
| 2026-05-05 20:02 | 42.08619 | -53.47613 | 37337 ft | 540 kts | 68° |
| 2026-05-05 20:02 | 42.11280 | -53.38161 | 37342 ft | 540 kts | 68° |
| 2026-05-05 20:03 | 42.13940 | -53.28674 | 37348 ft | 543 kts | 68° |
| 2026-05-05 20:03 | 42.16607 | -53.19130 | 37344 ft | 544 kts | 68° |
| 2026-05-05 20:04 | 42.19267 | -53.09573 | 37341 ft | 544 kts | 68° |
| 2026-05-05 20:04 | 42.21919 | -53.00008 | 37345 ft | 544 kts | 68° |
| 2026-05-05 20:05 | 42.24562 | -52.90437 | 37343 ft | 544 kts | 69° |
| 2026-05-05 20:05 | 42.27195 | -52.80869 | 37347 ft | 544 kts | 69° |
| 2026-05-05 20:06 | 42.29818 | -52.71298 | 37346 ft | 544 kts | 69° |
| 2026-05-05 20:06 | 42.32434 | -52.61717 | 37348 ft | 544 kts | 69° |
| 2026-05-05 20:07 | 42.35048 | -52.52105 | 37347 ft | 546 kts | 69° |
| 2026-05-05 20:07 | 42.37646 | -52.42514 | 37346 ft | 547 kts | 69° |
| 2026-05-05 20:08 | 42.40254 | -52.32848 | 37356 ft | 547 kts | 69° |
| 2026-05-05 20:08 | 42.42859 | -52.23157 | 37347 ft | 547 kts | 69° |
| 2026-05-05 20:09 | 42.45450 | -52.13476 | 37348 ft | 547 kts | 69° |
| 2026-05-05 20:09 | 42.48033 | -52.03791 | 37349 ft | 547 kts | 69° |
| 2026-05-05 20:10 | 42.50608 | -51.94097 | 37351 ft | 547 kts | 69° |
| 2026-05-05 20:10 | 42.53175 | -51.84390 | 37350 ft | 547 kts | 70° |
| 2026-05-05 20:11 | 42.55733 | -51.74683 | 37350 ft | 547 kts | 70° |
| 2026-05-05 20:11 | 42.58280 | -51.64976 | 37356 ft | 547 kts | 70° |
| 2026-05-05 20:12 | 42.60821 | -51.55250 | 37353 ft | 546 kts | 70° |
| 2026-05-05 20:12 | 42.63354 | -51.45520 | 37354 ft | 546 kts | 70° |
| 2026-05-05 20:13 | 42.65860 | -51.35852 | 37358 ft | 546 kts | 70° |
| 2026-05-05 20:13 | 42.68376 | -51.26108 | 37359 ft | 546 kts | 70° |
| 2026-05-05 20:14 | 42.70881 | -51.16365 | 37359 ft | 546 kts | 70° |
| 2026-05-05 20:14 | 42.73380 | -51.06607 | 37349 ft | 546 kts | 70° |
| 2026-05-05 20:15 | 42.75882 | -50.96794 | 37358 ft | 550 kts | 70° |
| 2026-05-05 20:15 | 42.78384 | -50.86943 | 37360 ft | 551 kts | 70° |
| 2026-05-05 20:16 | 42.80875 | -50.77090 | 37359 ft | 550 kts | 70° |
| 2026-05-05 20:16 | 42.83359 | -50.67229 | 37360 ft | 550 kts | 71° |
| 2026-05-05 20:17 | 42.85835 | -50.57356 | 37363 ft | 550 kts | 71° |
| 2026-05-05 20:17 | 42.88299 | -50.47488 | 37363 ft | 550 kts | 71° |
| 2026-05-05 20:18 | 42.90757 | -50.37601 | 37363 ft | 550 kts | 71° |
| 2026-05-05 20:18 | 42.93205 | -50.27716 | 37353 ft | 551 kts | 71° |
| 2026-05-05 20:19 | 42.95657 | -50.17768 | 37363 ft | 555 kts | 71° |
| 2026-05-05 20:19 | 42.98093 | -50.07844 | 37365 ft | 555 kts | 71° |
| 2026-05-05 20:20 | 43.01060 | -49.98157 | 37364 ft | 552 kts | 57° |
| 2026-05-05 20:20 | 43.05049 | -49.89197 | 37363 ft | 552 kts | 55° |
| 2026-05-05 20:21 | 43.09219 | -49.80391 | 37362 ft | 552 kts | 54° |
| 2026-05-05 20:21 | 43.13408 | -49.71589 | 37364 ft | 552 kts | 54° |
| 2026-05-05 20:22 | 43.17576 | -49.62752 | 37366 ft | 552 kts | 54° |
| 2026-05-05 20:22 | 43.21718 | -49.53904 | 37363 ft | 552 kts | 54° |
| 2026-05-05 20:23 | 43.25853 | -49.45033 | 37366 ft | 552 kts | 55° |
| 2026-05-05 20:23 | 43.29980 | -49.36154 | 37365 ft | 552 kts | 55° |
| 2026-05-05 20:24 | 43.34101 | -49.27264 | 37363 ft | 552 kts | 55° |
| 2026-05-05 20:24 | 43.38211 | -49.18370 | 37363 ft | 552 kts | 55° |
| 2026-05-05 20:25 | 43.42319 | -49.09455 | 37367 ft | 551 kts | 55° |
| 2026-05-05 20:25 | 43.46414 | -49.00539 | 37365 ft | 551 kts | 55° |
| 2026-05-05 20:26 | 43.49816 | -48.93113 | 37363 ft | 551 kts | 55° |
| 2026-05-05 20:26 | 43.53900 | -48.84173 | 37352 ft | 551 kts | 55° |
| 2026-05-05 20:27 | 43.57976 | -48.75223 | 37369 ft | 551 kts | 55° |
| 2026-05-05 20:27 | 43.62046 | -48.66257 | 37366 ft | 551 kts | 55° |
| 2026-05-05 20:28 | 43.66106 | -48.57286 | 37339 ft | 551 kts | 55° |
| 2026-05-05 20:28 | 43.70174 | -48.48272 | 37366 ft | 555 kts | 56° |
| 2026-05-05 20:29 | 43.74257 | -48.39195 | 37360 ft | 556 kts | 56° |
| 2026-05-05 20:29 | 43.78336 | -48.30098 | 37356 ft | 556 kts | 56° |
| 2026-05-05 20:30 | 43.82406 | -48.20991 | 37364 ft | 556 kts | 56° |
| 2026-05-05 20:30 | 43.86438 | -48.11944 | 37352 ft | 556 kts | 56° |
| 2026-05-05 20:31 | 43.90492 | -48.02818 | 37355 ft | 556 kts | 56° |
| 2026-05-05 20:31 | 43.94538 | -47.93679 | 37355 ft | 556 kts | 56° |
| 2026-05-05 20:32 | 43.98578 | -47.84529 | 37356 ft | 556 kts | 56° |
| 2026-05-05 20:32 | 44.02609 | -47.75367 | 37354 ft | 555 kts | 56° |
| 2026-05-05 20:33 | 44.06628 | -47.66204 | 37350 ft | 554 kts | 56° |
| 2026-05-05 20:33 | 44.10632 | -47.57044 | 37355 ft | 554 kts | 56° |
| 2026-05-05 20:34 | 44.14630 | -47.47872 | 37355 ft | 554 kts | 56° |
| 2026-05-05 20:34 | 44.18617 | -47.38694 | 37349 ft | 553 kts | 56° |
| 2026-05-05 20:35 | 44.22594 | -47.29512 | 37350 ft | 553 kts | 56° |
| 2026-05-05 20:35 | 44.26565 | -47.20314 | 37360 ft | 553 kts | 56° |
| 2026-05-05 20:36 | 44.30524 | -47.11111 | 37344 ft | 552 kts | 56° |
| 2026-05-05 20:36 | 44.34471 | -47.01908 | 37344 ft | 552 kts | 56° |
| 2026-05-05 20:37 | 44.38413 | -46.92688 | 37356 ft | 552 kts | 57° |
| 2026-05-05 20:37 | 44.42340 | -46.83472 | 37344 ft | 552 kts | 57° |
| 2026-05-05 20:38 | 44.46236 | -46.74301 | 37341 ft | 552 kts | 57° |
| 2026-05-05 20:38 | 44.50149 | -46.65058 | 37341 ft | 551 kts | 57° |
| 2026-05-05 20:39 | 44.54055 | -46.55804 | 37339 ft | 551 kts | 57° |
| 2026-05-05 20:39 | 44.57951 | -46.46543 | 37341 ft | 551 kts | 57° |
| 2026-05-05 20:40 | 44.61840 | -46.37266 | 37347 ft | 551 kts | 57° |
| 2026-05-05 20:40 | 44.65719 | -46.27984 | 37342 ft | 551 kts | 57° |
| 2026-05-05 20:41 | 44.69590 | -46.18690 | 37340 ft | 551 kts | 57° |
| 2026-05-05 20:41 | 44.73452 | -46.09390 | 37341 ft | 551 kts | 57° |
| 2026-05-05 20:42 | 44.77312 | -46.00063 | 37338 ft | 553 kts | 57° |
| 2026-05-05 20:42 | 44.81190 | -45.90663 | 37335 ft | 556 kts | 57° |
| 2026-05-05 20:43 | 44.85068 | -45.81228 | 37334 ft | 556 kts | 57° |
| 2026-05-05 20:43 | 44.88936 | -45.71784 | 37334 ft | 555 kts | 57° |
| 2026-05-05 20:44 | 44.92785 | -45.62358 | 37330 ft | 554 kts | 58° |
| 2026-05-05 20:44 | 44.96625 | -45.52920 | 37330 ft | 554 kts | 58° |
| 2026-05-05 20:45 | 45.02372 | -45.38741 | 37329 ft | 554 kts | 58° |
| 2026-05-05 20:45 | 45.06193 | -45.29273 | 37331 ft | 554 kts | 58° |
| 2026-05-05 20:46 | 45.09981 | -45.19852 | 37328 ft | 554 kts | 58° |
| 2026-05-05 20:46 | 45.13785 | -45.10363 | 37319 ft | 554 kts | 58° |
| 2026-05-05 20:47 | 45.17579 | -45.00865 | 37327 ft | 554 kts | 58° |
| 2026-05-05 20:47 | 45.21365 | -44.91353 | 37324 ft | 554 kts | 58° |
| 2026-05-05 20:48 | 45.25142 | -44.81834 | 37326 ft | 554 kts | 58° |
| 2026-05-05 20:48 | 45.28907 | -44.72311 | 37332 ft | 553 kts | 58° |
| 2026-05-05 20:49 | 45.32665 | -44.62773 | 37325 ft | 553 kts | 58° |
| 2026-05-05 20:49 | 45.36413 | -44.53228 | 37328 ft | 553 kts | 59° |
| 2026-05-05 20:50 | 45.40154 | -44.43668 | 37327 ft | 553 kts | 59° |
| 2026-05-05 20:50 | 45.43885 | -44.34100 | 37326 ft | 553 kts | 59° |
| 2026-05-05 20:51 | 45.47610 | -44.24516 | 37336 ft | 553 kts | 59° |
| 2026-05-05 20:51 | 45.51323 | -44.14927 | 37325 ft | 552 kts | 59° |
| 2026-05-05 20:52 | 45.55027 | -44.05329 | 37324 ft | 552 kts | 59° |
| 2026-05-05 20:52 | 45.58724 | -43.95717 | 37325 ft | 552 kts | 59° |
| 2026-05-05 20:53 | 45.62412 | -43.86093 | 37322 ft | 553 kts | 59° |
| 2026-05-05 20:53 | 45.66072 | -43.76509 | 37319 ft | 553 kts | 59° |
| 2026-05-05 20:54 | 45.69750 | -43.66845 | 37317 ft | 553 kts | 59° |
| 2026-05-05 20:54 | 45.73422 | -43.57162 | 37592 ft | 553 kts | 59° |
| 2026-05-05 20:55 | 45.75248 | -43.52332 | 37888 ft | 551 kts | 59° |
| 2026-05-05 20:55 | 45.77064 | -43.47521 | 38195 ft | 548 kts | 59° |
| 2026-05-05 20:55 | 45.78871 | -43.42725 | 38482 ft | 546 kts | 59° |
| 2026-05-05 20:55 | 45.80674 | -43.37930 | 38735 ft | 545 kts | 59° |
| 2026-05-05 20:56 | 45.82470 | -43.33149 | 38906 ft | 545 kts | 59° |
| 2026-05-05 20:56 | 45.84266 | -43.28360 | 39056 ft | 546 kts | 60° |
| 2026-05-05 20:56 | 45.86062 | -43.23563 | 39221 ft | 545 kts | 60° |
| 2026-05-05 20:56 | 45.87853 | -43.18770 | 39303 ft | 545 kts | 60° |
| 2026-05-05 20:57 | 45.91424 | -43.09183 | 39316 ft | 543 kts | 60° |
| 2026-05-05 20:57 | 45.94978 | -42.99611 | 39325 ft | 543 kts | 60° |
| 2026-05-05 20:58 | 45.98497 | -42.90098 | 39311 ft | 542 kts | 60° |
| 2026-05-05 20:58 | 46.02032 | -42.80511 | 39313 ft | 542 kts | 60° |
| 2026-05-05 20:59 | 46.05556 | -42.70917 | 39311 ft | 542 kts | 60° |
| 2026-05-05 20:59 | 46.09075 | -42.61303 | 39315 ft | 542 kts | 60° |
| 2026-05-05 21:00 | 46.12583 | -42.51685 | 39309 ft | 542 kts | 60° |
| 2026-05-05 21:00 | 46.16081 | -42.42061 | 39307 ft | 542 kts | 60° |
| 2026-05-05 21:01 | 46.19572 | -42.32421 | 39310 ft | 542 kts | 61° |
| 2026-05-05 21:01 | 46.23055 | -42.22770 | 39314 ft | 541 kts | 61° |
| 2026-05-05 21:02 | 46.26525 | -42.13118 | 39314 ft | 541 kts | 61° |
| 2026-05-05 21:02 | 46.29986 | -42.03457 | 39319 ft | 541 kts | 61° |
| 2026-05-05 21:03 | 46.33441 | -41.93780 | 39314 ft | 541 kts | 61° |
| 2026-05-05 21:03 | 46.36882 | -41.84104 | 39309 ft | 541 kts | 61° |
| 2026-05-05 21:04 | 46.40319 | -41.74406 | 39306 ft | 541 kts | 61° |
| 2026-05-05 21:04 | 46.43744 | -41.64704 | 39307 ft | 541 kts | 62° |
| 2026-05-05 21:05 | 46.47138 | -41.55058 | 39304 ft | 540 kts | 62° |
| 2026-05-05 21:05 | 46.50548 | -41.45328 | 39311 ft | 540 kts | 62° |
| 2026-05-05 21:06 | 46.53947 | -41.35596 | 39310 ft | 540 kts | 62° |
| 2026-05-05 21:06 | 46.57336 | -41.25857 | 39315 ft | 540 kts | 62° |
| 2026-05-05 21:07 | 46.60716 | -41.16106 | 39304 ft | 540 kts | 62° |
| 2026-05-05 21:07 | 46.64089 | -41.06341 | 39307 ft | 540 kts | 62° |
| 2026-05-05 21:08 | 46.67451 | -40.96570 | 39298 ft | 540 kts | 62° |
| 2026-05-05 21:08 | 46.70806 | -40.86784 | 39310 ft | 540 kts | 62° |
| 2026-05-05 21:09 | 46.74150 | -40.76993 | 39308 ft | 540 kts | 62° |
| 2026-05-05 21:09 | 46.77484 | -40.67194 | 39308 ft | 539 kts | 62° |
| 2026-05-05 21:10 | 46.80812 | -40.57376 | 39306 ft | 539 kts | 62° |
| 2026-05-05 21:10 | 46.84127 | -40.47560 | 39305 ft | 539 kts | 62° |
| 2026-05-05 21:11 | 46.87435 | -40.37730 | 39299 ft | 540 kts | 63° |
| 2026-05-05 21:11 | 46.90716 | -40.27940 | 39300 ft | 540 kts | 63° |
| 2026-05-05 21:12 | 46.94013 | -40.18068 | 39294 ft | 540 kts | 63° |
| 2026-05-05 21:12 | 46.97299 | -40.08189 | 39300 ft | 540 kts | 63° |
| 2026-05-05 21:13 | 47.00399 | -39.98170 | 39300 ft | 540 kts | 68° |
| 2026-05-05 21:13 | 47.03085 | -39.87908 | 39292 ft | 539 kts | 69° |
| 2026-05-05 21:14 | 47.05236 | -39.79335 | 39299 ft | 539 kts | 70° |
| 2026-05-05 21:14 | 47.07802 | -39.68991 | 39296 ft | 539 kts | 70° |
| 2026-05-05 21:15 | 47.10362 | -39.58648 | 39300 ft | 539 kts | 70° |
| 2026-05-05 21:15 | 47.12915 | -39.48323 | 39299 ft | 538 kts | 70° |
| 2026-05-05 21:16 | 47.15459 | -39.37996 | 39293 ft | 538 kts | 70° |
| 2026-05-05 21:16 | 47.17994 | -39.27656 | 39287 ft | 538 kts | 70° |
| 2026-05-05 21:17 | 47.20519 | -39.17311 | 39294 ft | 537 kts | 70° |
| 2026-05-05 21:17 | 47.23035 | -39.06950 | 39292 ft | 537 kts | 70° |
| 2026-05-05 21:18 | 47.25540 | -38.96591 | 39293 ft | 537 kts | 70° |
| 2026-05-05 21:18 | 47.28037 | -38.86214 | 39298 ft | 537 kts | 71° |
| 2026-05-05 21:19 | 47.30519 | -38.75850 | 39286 ft | 536 kts | 71° |
| 2026-05-05 21:19 | 47.32989 | -38.65488 | 39282 ft | 536 kts | 71° |
| 2026-05-05 21:20 | 47.35436 | -38.55175 | 39280 ft | 536 kts | 71° |
| 2026-05-05 21:20 | 47.37892 | -38.44775 | 39281 ft | 537 kts | 71° |
| 2026-05-05 21:21 | 47.40338 | -38.34364 | 39286 ft | 537 kts | 71° |
| 2026-05-05 21:21 | 47.42774 | -38.23949 | 39284 ft | 537 kts | 71° |
| 2026-05-05 21:22 | 47.45202 | -38.13520 | 39282 ft | 537 kts | 71° |
| 2026-05-05 21:22 | 47.47619 | -38.03085 | 39279 ft | 536 kts | 71° |
| 2026-05-05 21:23 | 47.50024 | -37.92651 | 39278 ft | 536 kts | 72° |
| 2026-05-05 21:23 | 47.52421 | -37.82202 | 39279 ft | 536 kts | 72° |
| 2026-05-05 21:24 | 47.54807 | -37.71752 | 39276 ft | 536 kts | 72° |
| 2026-05-05 21:24 | 47.57182 | -37.61299 | 39277 ft | 535 kts | 72° |
| 2026-05-05 21:25 | 47.59546 | -37.50842 | 39277 ft | 535 kts | 72° |
| 2026-05-05 21:25 | 47.61900 | -37.40373 | 39271 ft | 535 kts | 72° |
| 2026-05-05 21:26 | 47.64244 | -37.29903 | 39268 ft | 535 kts | 72° |
| 2026-05-05 21:26 | 47.66564 | -37.19487 | 39266 ft | 535 kts | 72° |
| 2026-05-05 21:27 | 47.68892 | -37.08982 | 39262 ft | 535 kts | 72° |
| 2026-05-05 21:27 | 47.71208 | -36.98479 | 39263 ft | 535 kts | 73° |
| 2026-05-05 21:28 | 47.73518 | -36.87952 | 39266 ft | 536 kts | 73° |
| 2026-05-05 21:28 | 47.75821 | -36.77400 | 39251 ft | 537 kts | 73° |
| 2026-05-05 21:29 | 47.78116 | -36.66836 | 39264 ft | 537 kts | 73° |
| 2026-05-05 21:29 | 47.80400 | -36.56262 | 39249 ft | 537 kts | 73° |
| 2026-05-05 21:30 | 47.82675 | -36.45683 | 39260 ft | 537 kts | 73° |
| 2026-05-05 21:30 | 47.84940 | -36.35091 | 39244 ft | 537 kts | 73° |
| 2026-05-05 21:31 | 47.87196 | -36.24487 | 39254 ft | 537 kts | 73° |
| 2026-05-05 21:31 | 47.89427 | -36.13946 | 39243 ft | 537 kts | 73° |
| 2026-05-05 21:32 | 47.91662 | -36.03330 | 39243 ft | 537 kts | 73° |
| 2026-05-05 21:32 | 47.93888 | -35.92704 | 39245 ft | 537 kts | 74° |
| 2026-05-05 21:33 | 47.96101 | -35.82080 | 39232 ft | 537 kts | 74° |
| 2026-05-05 21:33 | 47.98306 | -35.71443 | 39245 ft | 537 kts | 74° |
| 2026-05-05 21:34 | 48.00501 | -35.60796 | 39229 ft | 536 kts | 74° |
| 2026-05-05 21:34 | 48.02685 | -35.50143 | 39240 ft | 536 kts | 74° |
| 2026-05-05 21:35 | 48.04859 | -35.39483 | 39229 ft | 536 kts | 74° |
| 2026-05-05 21:35 | 48.07024 | -35.28810 | 39231 ft | 536 kts | 74° |
| 2026-05-05 21:36 | 48.09179 | -35.18130 | 39211 ft | 536 kts | 74° |
| 2026-05-05 21:36 | 48.11325 | -35.07438 | 39227 ft | 536 kts | 75° |
| 2026-05-05 21:37 | 48.13458 | -34.96746 | 39224 ft | 536 kts | 75° |
| 2026-05-05 21:37 | 48.15583 | -34.86038 | 39222 ft | 536 kts | 75° |
| 2026-05-05 21:38 | 48.17696 | -34.75333 | 39222 ft | 536 kts | 75° |
| 2026-05-05 21:38 | 48.19787 | -34.64680 | 39219 ft | 536 kts | 75° |
| 2026-05-05 21:39 | 48.21881 | -34.53956 | 39212 ft | 536 kts | 75° |
| 2026-05-05 21:39 | 48.23966 | -34.43217 | 39214 ft | 536 kts | 75° |
| 2026-05-05 21:40 | 48.26039 | -34.32475 | 39214 ft | 536 kts | 75° |
| 2026-05-05 21:40 | 48.28104 | -34.21718 | 39213 ft | 536 kts | 75° |
| 2026-05-05 21:41 | 48.30157 | -34.10958 | 39208 ft | 536 kts | 75° |
| 2026-05-05 21:41 | 48.32200 | -34.00195 | 39206 ft | 536 kts | 75° |
| 2026-05-05 21:42 | 48.34234 | -33.89416 | 39206 ft | 536 kts | 75° |
| 2026-05-05 21:42 | 48.36256 | -33.78634 | 39206 ft | 536 kts | 75° |
| 2026-05-05 21:43 | 48.38255 | -33.67918 | 39199 ft | 536 kts | 75° |
| 2026-05-05 21:43 | 48.40258 | -33.57117 | 39200 ft | 535 kts | 75° |
| 2026-05-05 21:44 | 48.42249 | -33.46320 | 39197 ft | 535 kts | 76° |
| 2026-05-05 21:44 | 48.44231 | -33.35506 | 39194 ft | 535 kts | 76° |
| 2026-05-05 21:45 | 48.46200 | -33.24696 | 39195 ft | 535 kts | 76° |
| 2026-05-05 21:45 | 48.48161 | -33.13870 | 39194 ft | 535 kts | 76° |
| 2026-05-05 21:46 | 48.50112 | -33.03035 | 39192 ft | 535 kts | 76° |
| 2026-05-05 21:46 | 48.52054 | -32.92186 | 39192 ft | 535 kts | 76° |
| 2026-05-05 21:47 | 48.53970 | -32.81409 | 39192 ft | 535 kts | 76° |
| 2026-05-05 21:47 | 48.55889 | -32.70559 | 39192 ft | 535 kts | 76° |
| 2026-05-05 21:48 | 48.57799 | -32.59693 | 39192 ft | 535 kts | 76° |
| 2026-05-05 21:48 | 48.59699 | -32.48817 | 39192 ft | 535 kts | 76° |
| 2026-05-05 21:49 | 48.61586 | -32.37947 | 39194 ft | 535 kts | 76° |
| 2026-05-05 21:49 | 48.63464 | -32.27065 | 39196 ft | 535 kts | 76° |
| 2026-05-05 21:50 | 48.65330 | -32.16181 | 39196 ft | 535 kts | 76° |
| 2026-05-05 21:50 | 48.67187 | -32.05282 | 39204 ft | 535 kts | 76° |
| 2026-05-05 21:51 | 48.69034 | -31.94375 | 39195 ft | 535 kts | 76° |
| 2026-05-05 21:51 | 48.70870 | -31.83463 | 39195 ft | 535 kts | 76° |
| 2026-05-05 21:52 | 48.73593 | -31.67152 | 39190 ft | 535 kts | 76° |
| 2026-05-05 21:53 | 48.75404 | -31.56208 | 39203 ft | 535 kts | 75° |
| 2026-05-05 21:53 | 48.77204 | -31.45267 | 39206 ft | 535 kts | 75° |
| 2026-05-05 21:54 | 48.78996 | -31.34311 | 39208 ft | 535 kts | 76° |
| 2026-05-05 21:54 | 48.80776 | -31.23356 | 39208 ft | 535 kts | 76° |
| 2026-05-05 21:55 | 48.82543 | -31.12395 | 39211 ft | 534 kts | 75° |
| 2026-05-05 21:55 | 48.84297 | -31.01453 | 39214 ft | 533 kts | 75° |
| 2026-05-05 21:56 | 48.86040 | -30.90513 | 39219 ft | 533 kts | 75° |
| 2026-05-05 21:56 | 48.87774 | -30.79552 | 39225 ft | 533 kts | 76° |
| 2026-05-05 21:57 | 48.89494 | -30.68599 | 39223 ft | 532 kts | 75° |
| 2026-05-05 21:57 | 48.91192 | -30.57720 | 39225 ft | 532 kts | 75° |
| 2026-05-05 21:58 | 48.92889 | -30.46775 | 39224 ft | 532 kts | 75° |
| 2026-05-05 21:58 | 48.94576 | -30.35818 | 39226 ft | 532 kts | 75° |
| 2026-05-05 21:59 | 48.96249 | -30.24870 | 39232 ft | 530 kts | 75° |
| 2026-05-05 21:59 | 48.97906 | -30.13960 | 39239 ft | 528 kts | 75° |
| 2026-05-05 22:00 | 48.99551 | -30.03056 | 39239 ft | 528 kts | 75° |
| 2026-05-05 22:00 | 49.01167 | -29.92133 | 39243 ft | 529 kts | 76° |
| 2026-05-05 22:01 | 49.02739 | -29.81228 | 39243 ft | 524 kts | 75° |
| 2026-05-05 22:01 | 49.04287 | -29.70403 | 39247 ft | 522 kts | 75° |
| 2026-05-05 22:02 | 49.05568 | -29.61413 | 39249 ft | 523 kts | 75° |
| 2026-05-05 22:02 | 49.07105 | -29.50573 | 39249 ft | 523 kts | 75° |
| 2026-05-05 22:03 | 49.08630 | -29.39729 | 39255 ft | 521 kts | 75° |
| 2026-05-05 22:03 | 49.10133 | -29.28961 | 39255 ft | 518 kts | 75° |
| 2026-05-05 22:04 | 49.11625 | -29.18207 | 39256 ft | 518 kts | 75° |
| 2026-05-05 22:04 | 49.13108 | -29.07444 | 39260 ft | 518 kts | 75° |
| 2026-05-05 22:05 | 49.14578 | -28.96681 | 39260 ft | 517 kts | 75° |
| 2026-05-05 22:05 | 49.16031 | -28.85967 | 39264 ft | 514 kts | 75° |
| 2026-05-05 22:06 | 49.17464 | -28.75324 | 39263 ft | 514 kts | 75° |
| 2026-05-05 22:06 | 49.18896 | -28.64613 | 39264 ft | 515 kts | 75° |
| 2026-05-05 22:07 | 49.20319 | -28.53890 | 39268 ft | 513 kts | 75° |
| 2026-05-05 22:07 | 49.21723 | -28.43218 | 39284 ft | 511 kts | 75° |
| 2026-05-05 22:08 | 49.23115 | -28.32558 | 39274 ft | 511 kts | 75° |
| 2026-05-05 22:08 | 49.24499 | -28.21889 | 39288 ft | 511 kts | 75° |
| 2026-05-05 22:09 | 49.25872 | -28.11218 | 39273 ft | 511 kts | 75° |
| 2026-05-05 22:09 | 49.27236 | -28.00529 | 39286 ft | 511 kts | 75° |
| 2026-05-05 22:10 | 49.28590 | -27.89837 | 39275 ft | 511 kts | 75° |
| 2026-05-05 22:10 | 49.29934 | -27.79149 | 39288 ft | 511 kts | 75° |
| 2026-05-05 22:11 | 49.31260 | -27.68517 | 39287 ft | 511 kts | 75° |
| 2026-05-05 22:11 | 49.32581 | -27.57838 | 39290 ft | 509 kts | 75° |
| 2026-05-05 22:12 | 49.33890 | -27.47168 | 39289 ft | 509 kts | 75° |
| 2026-05-05 22:12 | 49.35191 | -27.36483 | 39294 ft | 509 kts | 76° |
| 2026-05-05 22:13 | 49.36481 | -27.25802 | 39309 ft | 510 kts | 75° |
| 2026-05-05 22:13 | 49.37763 | -27.15101 | 39301 ft | 510 kts | 76° |
| 2026-05-05 22:14 | 49.39034 | -27.04400 | 39300 ft | 510 kts | 76° |
| 2026-05-05 22:14 | 49.40295 | -26.93695 | 39300 ft | 510 kts | 76° |
| 2026-05-05 22:15 | 49.41544 | -26.83001 | 39323 ft | 510 kts | 76° |
| 2026-05-05 22:15 | 49.42786 | -26.72272 | 39302 ft | 507 kts | 76° |
| 2026-05-05 22:16 | 49.44002 | -26.61679 | 39306 ft | 506 kts | 76° |
| 2026-05-05 22:16 | 49.45217 | -26.51019 | 39303 ft | 506 kts | 76° |
| 2026-05-05 22:17 | 49.46422 | -26.40343 | 39308 ft | 506 kts | 76° |
| 2026-05-05 22:17 | 49.47615 | -26.29686 | 39305 ft | 505 kts | 76° |
| 2026-05-05 22:18 | 49.48793 | -26.19062 | 39312 ft | 503 kts | 76° |
| 2026-05-05 22:18 | 49.49962 | -26.08439 | 39312 ft | 504 kts | 76° |
| 2026-05-05 22:19 | 49.51122 | -25.97804 | 39311 ft | 504 kts | 76° |
| 2026-05-05 22:19 | 49.52272 | -25.87160 | 39308 ft | 503 kts | 76° |
| 2026-05-05 22:20 | 49.53406 | -25.76560 | 39315 ft | 501 kts | 76° |
| 2026-05-05 22:20 | 49.54531 | -25.65962 | 39310 ft | 501 kts | 76° |
| 2026-05-05 22:21 | 49.55646 | -25.55362 | 39312 ft | 501 kts | 76° |
| 2026-05-05 22:21 | 49.56751 | -25.44762 | 39315 ft | 501 kts | 77° |
| 2026-05-05 22:22 | 49.57840 | -25.34202 | 39312 ft | 497 kts | 77° |
| 2026-05-05 22:22 | 49.58915 | -25.23695 | 39312 ft | 496 kts | 77° |
| 2026-05-05 22:23 | 49.59974 | -25.13252 | 39308 ft | 497 kts | 77° |
| 2026-05-05 22:23 | 49.61030 | -25.02737 | 39334 ft | 497 kts | 77° |
| 2026-05-05 22:24 | 49.62074 | -24.92232 | 39312 ft | 494 kts | 77° |
| 2026-05-05 22:24 | 49.63105 | -24.81766 | 39309 ft | 493 kts | 77° |
| 2026-05-05 22:25 | 49.64126 | -24.71298 | 39312 ft | 494 kts | 77° |
| 2026-05-05 22:25 | 49.65139 | -24.60824 | 39306 ft | 494 kts | 77° |
| 2026-05-05 22:26 | 49.65641 | -24.55585 | 39324 ft | 494 kts | 77° |
| 2026-05-05 22:26 | 49.67094 | -24.40291 | 39305 ft | 493 kts | 77° |
| 2026-05-05 22:27 | 49.68077 | -24.29810 | 39305 ft | 493 kts | 77° |
| 2026-05-05 22:27 | 49.69052 | -24.19318 | 39305 ft | 494 kts | 77° |
| 2026-05-05 22:28 | 49.70011 | -24.08892 | 39310 ft | 494 kts | 77° |
| 2026-05-05 22:28 | 49.70965 | -23.98402 | 39300 ft | 493 kts | 77° |
| 2026-05-05 22:29 | 49.71911 | -23.87908 | 39300 ft | 493 kts | 77° |
| 2026-05-05 22:29 | 49.72847 | -23.77405 | 39300 ft | 493 kts | 78° |
| 2026-05-05 22:30 | 49.73773 | -23.66904 | 39295 ft | 493 kts | 78° |
| 2026-05-05 22:30 | 49.74690 | -23.56397 | 39300 ft | 493 kts | 78° |
| 2026-05-05 22:31 | 49.75598 | -23.45886 | 39300 ft | 493 kts | 78° |
| 2026-05-05 22:31 | 49.76496 | -23.35365 | 39298 ft | 493 kts | 78° |
| 2026-05-05 22:32 | 49.77384 | -23.24846 | 39298 ft | 493 kts | 78° |
| 2026-05-05 22:32 | 49.78257 | -23.14396 | 39294 ft | 492 kts | 78° |
| 2026-05-05 22:33 | 49.79127 | -23.03850 | 39295 ft | 490 kts | 78° |
| 2026-05-05 22:33 | 49.79976 | -22.93457 | 39296 ft | 490 kts | 78° |
| 2026-05-05 22:34 | 49.80822 | -22.82980 | 39294 ft | 490 kts | 78° |
| 2026-05-05 22:34 | 49.81659 | -22.72498 | 39314 ft | 490 kts | 79° |
| 2026-05-05 22:35 | 49.82484 | -22.62039 | 39294 ft | 488 kts | 79° |
| 2026-05-05 22:36 | 49.84124 | -22.40868 | 39294 ft | 488 kts | 79° |
| 2026-05-05 22:36 | 49.84926 | -22.30340 | 39296 ft | 490 kts | 79° |
| 2026-05-05 22:37 | 49.85714 | -22.19856 | 39291 ft | 490 kts | 79° |
| 2026-05-05 22:37 | 49.86491 | -22.09373 | 39294 ft | 489 kts | 79° |
| 2026-05-05 22:38 | 49.87253 | -21.98975 | 39293 ft | 489 kts | 79° |
| 2026-05-05 22:38 | 49.88013 | -21.88479 | 39300 ft | 489 kts | 79° |
| 2026-05-05 22:39 | 49.88763 | -21.77986 | 39300 ft | 489 kts | 80° |
| 2026-05-05 22:39 | 49.89504 | -21.67484 | 39294 ft | 492 kts | 80° |
| 2026-05-05 22:40 | 49.90241 | -21.56911 | 39294 ft | 494 kts | 80° |
| 2026-05-05 22:40 | 49.90967 | -21.46325 | 39290 ft | 494 kts | 80° |
| 2026-05-05 22:41 | 49.91685 | -21.35719 | 39306 ft | 494 kts | 80° |
| 2026-05-05 22:41 | 49.92392 | -21.25123 | 39292 ft | 493 kts | 81° |
| 2026-05-05 22:42 | 49.93086 | -21.14588 | 39289 ft | 493 kts | 81° |
| 2026-05-05 22:42 | 49.93774 | -21.03996 | 39291 ft | 493 kts | 81° |
| 2026-05-05 22:43 | 49.94453 | -20.93395 | 39287 ft | 494 kts | 81° |
| 2026-05-05 22:43 | 49.95123 | -20.82787 | 39288 ft | 494 kts | 81° |
| 2026-05-05 22:44 | 49.95782 | -20.72179 | 39277 ft | 494 kts | 81° |
| 2026-05-05 22:44 | 49.96432 | -20.61564 | 39282 ft | 494 kts | 81° |
| 2026-05-05 22:45 | 49.97072 | -20.50949 | 39279 ft | 494 kts | 81° |
| 2026-05-05 22:45 | 49.97703 | -20.40326 | 39290 ft | 494 kts | 81° |
| 2026-05-05 22:46 | 49.98324 | -20.29693 | 39285 ft | 494 kts | 82° |
| 2026-05-05 22:46 | 49.98935 | -20.19069 | 39269 ft | 494 kts | 82° |
| 2026-05-05 22:47 | 49.99537 | -20.08431 | 39279 ft | 494 kts | 82° |
| 2026-05-05 22:47 | 50.00093 | -19.97794 | 39278 ft | 495 kts | 83° |
| 2026-05-05 22:48 | 50.00362 | -19.87108 | 39272 ft | 495 kts | 85° |
| 2026-05-05 22:48 | 50.00525 | -19.76465 | 39276 ft | 495 kts | 85° |
| 2026-05-05 22:49 | 50.00696 | -19.65777 | 39272 ft | 495 kts | 85° |
| 2026-05-05 22:49 | 50.00882 | -19.55085 | 39271 ft | 495 kts | 85° |
| 2026-05-05 22:50 | 50.01067 | -19.44397 | 39271 ft | 495 kts | 85° |
| 2026-05-05 22:50 | 50.01242 | -19.33714 | 39270 ft | 494 kts | 86° |
| 2026-05-05 22:51 | 50.01406 | -19.23026 | 39266 ft | 494 kts | 86° |
| 2026-05-05 22:51 | 50.01561 | -19.12342 | 39271 ft | 494 kts | 86° |
| 2026-05-05 22:52 | 50.01705 | -19.01661 | 39269 ft | 494 kts | 86° |
| 2026-05-05 22:52 | 50.01839 | -18.90965 | 39266 ft | 494 kts | 86° |
| 2026-05-05 22:53 | 50.01964 | -18.80278 | 39259 ft | 495 kts | 86° |
| 2026-05-05 22:53 | 50.02078 | -18.69656 | 39259 ft | 495 kts | 86° |
| 2026-05-05 22:54 | 50.02183 | -18.58960 | 39267 ft | 495 kts | 86° |
| 2026-05-05 22:54 | 50.02263 | -18.50001 | 39261 ft | 495 kts | 86° |
| 2026-05-05 22:55 | 50.02363 | -18.37571 | 39261 ft | 495 kts | 87° |
| 2026-05-05 22:55 | 50.02427 | -18.28608 | 39259 ft | 495 kts | 87° |
| 2026-05-05 22:56 | 50.02494 | -18.17979 | 39258 ft | 495 kts | 87° |
| 2026-05-05 22:56 | 50.02552 | -18.07279 | 39251 ft | 495 kts | 87° |
| 2026-05-05 22:57 | 50.02600 | -17.96583 | 39249 ft | 494 kts | 87° |
| 2026-05-05 22:57 | 50.02637 | -17.85892 | 39249 ft | 494 kts | 87° |
| 2026-05-05 22:58 | 50.02665 | -17.75201 | 39249 ft | 495 kts | 87° |
| 2026-05-05 22:58 | 50.02684 | -17.64509 | 39249 ft | 494 kts | 88° |
| 2026-05-05 22:59 | 50.02691 | -17.55622 | 39249 ft | 494 kts | 88° |